Houston Spur, Louisiana
Current Conditions -  °F | °C
As of 11:55 AM on Sunday 21 Dec 2014 (Local Time) from KIER Reporting Station
Clear Clear  
Wind Chill: 57°   Ceiling: Unl
Heat Index: 57°   Visibility: 10mi
Dew Point: 45°   Wind: 0mph
Humidity: 65%   Direction: NA
Pressure: 30.1"   Gusts: NA
Location:  31.7915°N, 93.7011°W
Report Text: KIER 211755Z AUTO 00000KT 10SM CLR 14/07 A3010 RMK AO2 T01380073 10138 20009
Loading
Personal Weather Stations






























Interactive Weather Map New forecast layout! Learn more

10-Day Weather Forecast

Advertisements
Track Severe Weather on mobile